sensor_id;sensor_type;location;lat;lon;timestamp;pressure;altitude;pressure_sealevel;temperature;humidity
48077;BME280;33854;57.708;12.008;2023-04-22T00:01:28;101180.19;;;8.19;100.00
48077;BME280;33854;57.708;12.008;2023-04-22T00:03:54;101189.81;;;8.15;100.00
48077;BME280;33854;57.708;12.008;2023-04-22T00:06:19;101187.97;;;8.20;100.00
48077;BME280;33854;57.708;12.008;2023-04-22T00:08:45;101192.31;;;8.20;100.00
48077;BME280;33854;57.708;12.008;2023-04-22T00:11:11;101176.78;;;8.17;100.00
48077;BME280;33854;57.708;12.008;2023-04-22T00:13:36;101184.44;;;8.21;100.00
48077;BME280;33854;57.708;12.008;2023-04-22T00:16:05;101168.28;;;8.12;100.00
48077;BME280;33854;57.708;12.008;2023-04-22T00:18:33;101179.34;;;8.18;100.00
48077;BME280;33854;57.708;12.008;2023-04-22T00:20:59;101169.97;;;8.13;100.00
48077;BME280;33854;57.708;12.008;2023-04-22T00:23:24;101173.56;;;8.09;100.00
48077;BME280;33854;57.708;12.008;2023-04-22T00:25:50;101178.00;;;8.05;100.00
48077;BME280;33854;57.708;12.008;2023-04-22T00:28:15;101171.25;;;7.98;100.00
48077;BME280;33854;57.708;12.008;2023-04-22T00:30:41;101175.81;;;7.90;100.00
48077;BME280;33854;57.708;12.008;2023-04-22T00:33:06;101164.94;;;7.77;100.00
48077;BME280;33854;57.708;12.008;2023-04-22T00:35:32;101168.47;;;7.75;100.00
48077;BME280;33854;57.708;12.008;2023-04-22T00:37:57;101174.75;;;7.66;100.00
48077;BME280;33854;57.708;12.008;2023-04-22T00:40:23;101163.00;;;7.53;100.00
48077;BME280;33854;57.708;12.008;2023-04-22T00:42:49;101157.88;;;7.50;100.00
48077;BME280;33854;57.708;12.008;2023-04-22T00:45:16;101164.56;;;7.59;100.00
48077;BME280;33854;57.708;12.008;2023-04-22T00:47:43;101158.41;;;7.63;100.00
48077;BME280;33854;57.708;12.008;2023-04-22T00:50:08;101159.16;;;7.66;100.00
48077;BME280;33854;57.708;12.008;2023-04-22T00:52:34;101153.06;;;7.67;100.00
48077;BME280;33854;57.708;12.008;2023-04-22T00:55:00;101154.91;;;7.64;100.00
48077;BME280;33854;57.708;12.008;2023-04-22T00:57:25;101148.66;;;7.71;100.00
48077;BME280;33854;57.708;12.008;2023-04-22T00:59:51;101157.31;;;7.71;100.00
48077;BME280;33854;57.708;12.008;2023-04-22T01:02:17;101153.97;;;7.66;100.00
48077;BME280;33854;57.708;12.008;2023-04-22T01:04:43;101155.13;;;7.56;100.00
48077;BME280;33854;57.708;12.008;2023-04-22T01:07:09;101160.53;;;7.49;100.00
48077;BME280;33854;57.708;12.008;2023-04-22T01:09:35;101141.09;;;7.31;100.00
48077;BME280;33854;57.708;12.008;2023-04-22T01:12:01;101159.91;;;7.39;100.00
48077;BME280;33854;57.708;12.008;2023-04-22T01:14:26;101156.50;;;7.37;100.00
48077;BME280;33854;57.708;12.008;2023-04-22T01:16:53;101149.69;;;7.33;100.00
48077;BME280;33854;57.708;12.008;2023-04-22T01:19:19;101155.75;;;7.32;100.00
48077;BME280;33854;57.708;12.008;2023-04-22T01:21:45;101157.69;;;7.25;100.00
48077;BME280;33854;57.708;12.008;2023-04-22T01:24:11;101150.97;;;7.17;100.00
48077;BME280;33854;57.708;12.008;2023-04-22T01:26:37;101154.31;;;7.22;100.00
48077;BME280;33854;57.708;12.008;2023-04-22T01:29:03;101150.97;;;7.17;100.00
48077;BME280;33854;57.708;12.008;2023-04-22T01:31:30;101153.41;;;7.23;100.00
48077;BME280;33854;57.708;12.008;2023-04-22T01:33:56;101140.75;;;7.09;100.00
48077;BME280;33854;57.708;12.008;2023-04-22T01:36:22;101155.38;;;7.13;100.00
48077;BME280;33854;57.708;12.008;2023-04-22T01:38:48;101154.66;;;7.08;100.00
48077;BME280;33854;57.708;12.008;2023-04-22T01:41:14;101149.72;;;6.98;100.00
48077;BME280;33854;57.708;12.008;2023-04-22T01:43:41;101148.97;;;6.93;100.00
48077;BME280;33854;57.708;12.008;2023-04-22T01:46:08;101153.28;;;6.94;100.00
48077;BME280;33854;57.708;12.008;2023-04-22T01:48:34;101150.84;;;6.87;100.00
48077;BME280;33854;57.708;12.008;2023-04-22T01:51:00;101152.69;;;6.82;100.00
48077;BME280;33854;57.708;12.008;2023-04-22T01:53:26;101145.91;;;6.77;100.00
48077;BME280;33854;57.708;12.008;2023-04-22T01:55:51;101147.66;;;6.76;100.00
48077;BME280;33854;57.708;12.008;2023-04-22T01:58:17;101151.91;;;6.79;100.00
48077;BME280;33854;57.708;12.008;2023-04-22T02:00:43;101149.38;;;6.76;100.00
48077;BME280;33854;57.708;12.008;2023-04-22T02:03:08;101148.59;;;6.72;100.00
48077;BME280;33854;57.708;12.008;2023-04-22T02:05:34;101141.72;;;6.71;100.00
48077;BME280;33854;57.708;12.008;2023-04-22T02:07:59;101145.19;;;6.70;100.00
48077;BME280;33854;57.708;12.008;2023-04-22T02:10:24;101134.03;;;6.68;100.00
48077;BME280;33854;57.708;12.008;2023-04-22T02:12:50;101140.03;;;6.69;100.00
48077;BME280;33854;57.708;12.008;2023-04-22T02:15:15;101135.78;;;6.66;100.00
48077;BME280;33854;57.708;12.008;2023-04-22T02:17:41;101139.28;;;6.65;100.00
48077;BME280;33854;57.708;12.008;2023-04-22T02:20:08;101131.56;;;6.62;100.00
48077;BME280;33854;57.708;12.008;2023-04-22T02:22:37;101136.69;;;6.65;100.00
48077;BME280;33854;57.708;12.008;2023-04-22T02:25:03;101123.00;;;6.57;100.00
48077;BME280;33854;57.708;12.008;2023-04-22T02:27:29;101126.38;;;6.62;100.00
48077;BME280;33854;57.708;12.008;2023-04-22T02:29:54;101116.06;;;6.59;100.00
48077;BME280;33854;57.708;12.008;2023-04-22T02:32:19;101122.94;;;6.62;100.00
48077;BME280;33854;57.708;12.008;2023-04-22T02:34:47;101101.59;;;6.49;100.00
48077;BME280;33854;57.708;12.008;2023-04-22T02:37:12;101108.38;;;6.55;100.00
48077;BME280;33854;57.708;12.008;2023-04-22T02:39:38;101117.09;;;6.52;100.00
48077;BME280;33854;57.708;12.008;2023-04-22T02:42:03;101107.78;;;6.45;100.00
48077;BME280;33854;57.708;12.008;2023-04-22T02:44:29;101105.25;;;6.42;100.00
48077;BME280;33854;57.708;12.008;2023-04-22T02:46:54;101106.06;;;6.44;100.00
48077;BME280;33854;57.708;12.008;2023-04-22T02:49:20;101103.44;;;6.46;100.00
48077;BME280;33854;57.708;12.008;2023-04-22T02:51:45;101099.16;;;6.43;100.00
48077;BME280;33854;57.708;12.008;2023-04-22T02:54:11;101112.19;;;6.40;100.00
48077;BME280;33854;57.708;12.008;2023-04-22T02:56:36;101100.25;;;6.33;100.00
48077;BME280;33854;57.708;12.008;2023-04-22T02:59:02;101102.94;;;6.28;100.00
48077;BME280;33854;57.708;12.008;2023-04-22T03:01:27;101094.41;;;6.25;100.00
48077;BME280;33854;57.708;12.008;2023-04-22T03:03:53;101091.97;;;6.17;100.00
48077;BME280;33854;57.708;12.008;2023-04-22T03:06:18;101092.16;;;6.10;100.00
48077;BME280;33854;57.708;12.008;2023-04-22T03:08:44;101084.44;;;6.07;100.00
48077;BME280;33854;57.708;12.008;2023-04-22T03:11:09;101088.75;;;6.06;100.00
48077;BME280;33854;57.708;12.008;2023-04-22T03:13:34;101088.81;;;6.05;100.00
48077;BME280;33854;57.708;12.008;2023-04-22T03:16:00;101081.97;;;6.02;100.00
48077;BME280;33854;57.708;12.008;2023-04-22T03:18:26;101092.47;;;5.95;100.00
48077;BME280;33854;57.708;12.008;2023-04-22T03:20:51;101094.25;;;5.93;100.00
48077;BME280;33854;57.708;12.008;2023-04-22T03:23:16;101090.81;;;5.92;100.00
48077;BME280;33854;57.708;12.008;2023-04-22T03:25:42;101091.72;;;5.90;100.00
48077;BME280;33854;57.708;12.008;2023-04-22T03:28:07;101092.66;;;5.87;100.00
48077;BME280;33854;57.708;12.008;2023-04-22T03:30:33;101080.50;;;5.91;100.00
48077;BME280;33854;57.708;12.008;2023-04-22T03:32:58;101079.63;;;5.90;100.00
48077;BME280;33854;57.708;12.008;2023-04-22T03:35:24;101072.59;;;5.95;100.00
48077;BME280;33854;57.708;12.008;2023-04-22T03:37:49;101065.69;;;5.96;100.00
48077;BME280;33854;57.708;12.008;2023-04-22T03:40:15;101065.69;;;5.96;100.00
48077;BME280;33854;57.708;12.008;2023-04-22T03:42:40;101064.94;;;5.91;100.00
48077;BME280;33854;57.708;12.008;2023-04-22T03:45:06;101058.06;;;5.90;100.00
48077;BME280;33854;57.708;12.008;2023-04-22T03:47:31;101058.91;;;5.89;100.00
48077;BME280;33854;57.708;12.008;2023-04-22T03:49:57;101048.53;;;5.90;100.00
48077;BME280;33854;57.708;12.008;2023-04-22T03:52:22;101056.25;;;5.93;100.00
48077;BME280;33854;57.708;12.008;2023-04-22T03:54:48;101060.41;;;6.00;100.00
48077;BME280;33854;57.708;12.008;2023-04-22T03:57:13;101052.47;;;6.08;100.00
48077;BME280;33854;57.708;12.008;2023-04-22T03:59:39;101045.50;;;6.10;100.00
48077;BME280;33854;57.708;12.008;2023-04-22T04:02:04;101041.19;;;6.10;100.00
48077;BME280;33854;57.708;12.008;2023-04-22T04:04:31;101043.66;;;6.15;100.00
48077;BME280;33854;57.708;12.008;2023-04-22T04:06:57;101046.22;;;6.16;100.00
48077;BME280;33854;57.708;12.008;2023-04-22T04:09:22;101038.47;;;6.15;100.00
48077;BME280;33854;57.708;12.008;2023-04-22T04:11:48;101039.97;;;6.25;100.00
48077;BME280;33854;57.708;12.008;2023-04-22T04:14:13;101042.44;;;6.31;100.00
48077;BME280;33854;57.708;12.008;2023-04-22T04:16:39;101036.34;;;6.32;100.00
48077;BME280;33854;57.708;12.008;2023-04-22T04:19:04;101037.28;;;6.29;100.00
48077;BME280;33854;57.708;12.008;2023-04-22T04:21:30;101035.38;;;6.36;100.00
48077;BME280;33854;57.708;12.008;2023-04-22T04:23:57;101037.91;;;6.39;100.00
48077;BME280;33854;57.708;12.008;2023-04-22T04:26:23;101036.91;;;6.45;100.00
48077;BME280;33854;57.708;12.008;2023-04-22T04:28:49;101037.63;;;6.51;100.00
48077;BME280;33854;57.708;12.008;2023-04-22T04:31:14;101033.19;;;6.55;100.00
48077;BME280;33854;57.708;12.008;2023-04-22T04:33:40;101034.03;;;6.57;100.00
48077;BME280;33854;57.708;12.008;2023-04-22T04:36:06;101033.09;;;6.59;100.00
48077;BME280;33854;57.708;12.008;2023-04-22T04:38:32;101029.56;;;6.62;100.00
48077;BME280;33854;57.708;12.008;2023-04-22T04:40:58;101020.06;;;6.62;100.00
48077;BME280;33854;57.708;12.008;2023-04-22T04:43:24;101029.22;;;6.75;100.00
48077;BME280;33854;57.708;12.008;2023-04-22T04:45:50;101030.78;;;6.82;100.00
48077;BME280;33854;57.708;12.008;2023-04-22T04:48:17;101031.50;;;6.87;100.00
48077;BME280;33854;57.708;12.008;2023-04-22T04:50:44;101037.41;;;6.93;100.00
48077;BME280;33854;57.708;12.008;2023-04-22T04:53:10;101017.56;;;6.92;100.00
48077;BME280;33854;57.708;12.008;2023-04-22T04:55:36;101023.47;;;6.97;100.00
48077;BME280;33854;57.708;12.008;2023-04-22T04:58:02;101029.31;;;7.05;100.00
48077;BME280;33854;57.708;12.008;2023-04-22T05:00:28;101029.94;;;7.13;100.00
48077;BME280;33854;57.708;12.008;2023-04-22T05:02:53;101028.94;;;7.18;100.00
48077;BME280;33854;57.708;12.008;2023-04-22T05:05:19;101023.44;;;7.29;100.00
48077;BME280;33854;57.708;12.008;2023-04-22T05:07:44;101023.31;;;7.33;100.00
48077;BME280;33854;57.708;12.008;2023-04-22T05:10:10;101022.22;;;7.42;100.00
48077;BME280;33854;57.708;12.008;2023-04-22T05:12:36;101019.34;;;7.51;100.00
48077;BME280;33854;57.708;12.008;2023-04-22T05:15:02;101025.09;;;7.61;100.00
48077;BME280;33854;57.708;12.008;2023-04-22T05:17:27;101013.69;;;7.66;100.00
48077;BME280;33854;57.708;12.008;2023-04-22T05:19:53;101011.69;;;7.76;100.00
48077;BME280;33854;57.708;12.008;2023-04-22T05:22:19;100992.78;;;7.71;100.00
48077;BME280;33854;57.708;12.008;2023-04-22T05:24:44;101012.97;;;7.90;100.00
48077;BME280;33854;57.708;12.008;2023-04-22T05:27:10;101001.50;;;7.97;100.00
48077;BME280;33854;57.708;12.008;2023-04-22T05:29:36;101010.53;;;8.12;100.00
48077;BME280;33854;57.708;12.008;2023-04-22T05:32:01;100995.69;;;8.16;100.00
48077;BME280;33854;57.708;12.008;2023-04-22T05:34:27;100997.13;;;8.26;100.00
48077;BME280;33854;57.708;12.008;2023-04-22T05:36:52;101000.19;;;8.38;100.00
48077;BME280;33854;57.708;12.008;2023-04-22T05:39:18;100994.69;;;8.47;100.00
48077;BME280;33854;57.708;12.008;2023-04-22T05:41:44;100991.78;;;8.56;100.00
48077;BME280;33854;57.708;12.008;2023-04-22T05:44:10;100976.88;;;8.62;100.00
48077;BME280;33854;57.708;12.008;2023-04-22T05:46:35;100968.81;;;8.69;100.00
48077;BME280;33854;57.708;12.008;2023-04-22T05:49:01;100987.09;;;8.92;100.00
48077;BME280;33854;57.708;12.008;2023-04-22T05:51:26;100978.16;;;8.99;100.00
48077;BME280;33854;57.708;12.008;2023-04-22T05:53:52;100981.31;;;9.07;100.00
48077;BME280;33854;57.708;12.008;2023-04-22T05:56:17;100981.75;;;9.20;100.00
48077;BME280;33854;57.708;12.008;2023-04-22T05:58:43;100976.31;;;9.26;100.00
48077;BME280;33854;57.708;12.008;2023-04-22T06:01:09;100961.91;;;9.39;100.00
48077;BME280;33854;57.708;12.008;2023-04-22T06:03:35;100973.41;;;9.57;100.00
48077;BME280;33854;57.708;12.008;2023-04-22T06:06:00;100950.03;;;9.55;100.00
48077;BME280;33854;57.708;12.008;2023-04-22T06:08:26;100959.91;;;9.69;100.00
48077;BME280;33854;57.708;12.008;2023-04-22T06:10:51;100951.03;;;9.73;100.00
48077;BME280;33854;57.708;12.008;2023-04-22T06:13:17;100955.66;;;9.88;100.00
48077;BME280;33854;57.708;12.008;2023-04-22T06:15:42;100947.38;;;10.00;100.00
48077;BME280;33854;57.708;12.008;2023-04-22T06:18:08;100954.69;;;10.12;100.00
48077;BME280;33854;57.708;12.008;2023-04-22T06:20:33;100949.19;;;10.20;100.00
48077;BME280;33854;57.708;12.008;2023-04-22T06:23:00;100948.03;;;10.27;100.00
48077;BME280;33854;57.708;12.008;2023-04-22T06:25:26;100945.75;;;10.40;100.00
48077;BME280;33854;57.708;12.008;2023-04-22T06:27:51;100942.75;;;10.49;100.00
48077;BME280;33854;57.708;12.008;2023-04-22T06:30:17;100925.47;;;10.46;100.00
48077;BME280;33854;57.708;12.008;2023-04-22T06:32:42;100934.34;;;10.62;100.00
48077;BME280;33854;57.708;12.008;2023-04-22T06:35:08;100937.69;;;10.66;100.00
48077;BME280;33854;57.708;12.008;2023-04-22T06:37:33;100933.94;;;10.71;100.00
48077;BME280;33854;57.708;12.008;2023-04-22T06:39:59;100931.94;;;10.78;100.00
48077;BME280;33854;57.708;12.008;2023-04-22T06:42:24;100923.88;;;10.82;100.00
48077;BME280;33854;57.708;12.008;2023-04-22T06:44:50;100908.94;;;10.86;100.00
48077;BME280;33854;57.708;12.008;2023-04-22T06:47:15;100918.91;;;10.97;100.00
48077;BME280;33854;57.708;12.008;2023-04-22T06:49:41;100917.63;;;11.05;100.00
48077;BME280;33854;57.708;12.008;2023-04-22T06:52:09;100907.78;;;11.12;100.00
48077;BME280;33854;57.708;12.008;2023-04-22T06:54:34;100904.88;;;11.18;100.00
48077;BME280;33854;57.708;12.008;2023-04-22T06:57:00;100898.16;;;11.31;100.00
48077;BME280;33854;57.708;12.008;2023-04-22T06:59:25;100901.97;;;11.42;100.00
48077;BME280;33854;57.708;12.008;2023-04-22T07:01:51;100898.47;;;11.43;100.00
48077;BME280;33854;57.708;12.008;2023-04-22T07:04:16;100899.56;;;11.57;100.00
48077;BME280;33854;57.708;12.008;2023-04-22T07:06:42;100907.81;;;11.66;100.00
48077;BME280;33854;57.708;12.008;2023-04-22T07:09:07;100908.31;;;11.74;100.00
48077;BME280;33854;57.708;12.008;2023-04-22T07:11:33;100909.75;;;11.81;100.00
48077;BME280;33854;57.708;12.008;2023-04-22T07:13:59;100902.81;;;11.80;100.00
48077;BME280;33854;57.708;12.008;2023-04-22T07:16:25;100895.06;;;11.79;100.00
48077;BME280;33854;57.708;12.008;2023-04-22T07:18:51;100907.59;;;11.89;100.00
48077;BME280;33854;57.708;12.008;2023-04-22T07:21:17;100896.13;;;11.92;100.00
48077;BME280;33854;57.708;12.008;2023-04-22T07:23:42;100895.94;;;11.96;100.00
48077;BME280;33854;57.708;12.008;2023-04-22T07:26:08;100892.03;;;12.05;100.00
48077;BME280;33854;57.708;12.008;2023-04-22T07:28:33;100897.56;;;12.16;100.00
48077;BME280;33854;57.708;12.008;2023-04-22T07:30:58;100888.09;;;12.14;100.00
48077;BME280;33854;57.708;12.008;2023-04-22T07:33:24;100892.94;;;12.21;100.00
48077;BME280;33854;57.708;12.008;2023-04-22T07:35:49;100884.63;;;12.30;100.00
48077;BME280;33854;57.708;12.008;2023-04-22T07:38:15;100879.53;;;12.44;100.00
48077;BME280;33854;57.708;12.008;2023-04-22T07:40:40;100875.06;;;12.46;100.00
48077;BME280;33854;57.708;12.008;2023-04-22T07:43:06;100876.91;;;12.62;100.00
48077;BME280;33854;57.708;12.008;2023-04-22T07:45:32;100868.63;;;12.69;100.00
48077;BME280;33854;57.708;12.008;2023-04-22T07:47:57;100866.22;;;12.82;100.00
48077;BME280;33854;57.708;12.008;2023-04-22T07:50:23;100866.75;;;12.88;100.00
48077;BME280;33854;57.708;12.008;2023-04-22T07:52:48;100862.63;;;13.00;100.00
48077;BME280;33854;57.708;12.008;2023-04-22T07:55:14;100853.88;;;13.17;100.00
48077;BME280;33854;57.708;12.008;2023-04-22T07:57:40;100853.19;;;13.29;100.00
48077;BME280;33854;57.708;12.008;2023-04-22T08:00:06;100853.69;;;13.35;100.00
48077;BME280;33854;57.708;12.008;2023-04-22T08:02:33;100845.06;;;13.49;100.00
48077;BME280;33854;57.708;12.008;2023-04-22T08:04:58;100845.97;;;13.63;100.00
48077;BME280;33854;57.708;12.008;2023-04-22T08:07:24;100842.84;;;13.73;100.00
48077;BME280;33854;57.708;12.008;2023-04-22T08:09:49;100850.56;;;13.90;100.00
48077;BME280;33854;57.708;12.008;2023-04-22T08:12:14;100841.25;;;14.00;94.13
48077;BME280;33854;57.708;12.008;2023-04-22T08:14:40;100839.78;;;14.10;70.96
48077;BME280;33854;57.708;12.008;2023-04-22T08:17:05;100839.34;;;14.17;64.06
48077;BME280;33854;57.708;12.008;2023-04-22T08:19:31;100836.25;;;14.25;61.99
48077;BME280;33854;57.708;12.008;2023-04-22T08:21:56;100833.63;;;14.25;51.08
48077;BME280;33854;57.708;12.008;2023-04-22T08:24:22;100830.50;;;14.34;51.70
48077;BME280;33854;57.708;12.008;2023-04-22T08:26:48;100831.56;;;14.30;55.07
48077;BME280;33854;57.708;12.008;2023-04-22T08:29:13;100825.91;;;14.38;57.64
48077;BME280;33854;57.708;12.008;2023-04-22T08:31:38;100825.78;;;14.39;58.88
48077;BME280;33854;57.708;12.008;2023-04-22T08:34:04;100825.50;;;14.58;58.59
48077;BME280;33854;57.708;12.008;2023-04-22T08:36:30;100819.69;;;14.67;58.71
48077;BME280;33854;57.708;12.008;2023-04-22T08:38:56;100828.53;;;14.66;59.06
48077;BME280;33854;57.708;12.008;2023-04-22T08:41:21;100818.59;;;14.71;57.46
48077;BME280;33854;57.708;12.008;2023-04-22T08:43:49;100821.19;;;14.85;59.24
48077;BME280;33854;57.708;12.008;2023-04-22T08:46:16;100812.28;;;14.88;59.30
48077;BME280;33854;57.708;12.008;2023-04-22T08:48:46;100798.75;;;14.94;60.07
48077;BME280;33854;57.708;12.008;2023-04-22T08:51:14;100815.69;;;15.16;60.30
48077;BME280;33854;57.708;12.008;2023-04-22T08:53:42;100821.22;;;15.26;61.41
48077;BME280;33854;57.708;12.008;2023-04-22T08:56:08;100814.38;;;15.23;60.43
48077;BME280;33854;57.708;12.008;2023-04-22T08:58:34;100808.88;;;15.40;61.81
48077;BME280;33854;57.708;12.008;2023-04-22T09:01:00;100803.28;;;15.47;59.44
48077;BME280;33854;57.708;12.008;2023-04-22T09:03:27;100801.50;;;15.60;59.60
48077;BME280;33854;57.708;12.008;2023-04-22T09:05:54;100809.53;;;15.58;57.72
48077;BME280;33854;57.708;12.008;2023-04-22T09:08:20;100800.66;;;15.59;58.24
48077;BME280;33854;57.708;12.008;2023-04-22T09:10:46;100803.75;;;15.66;59.51
48077;BME280;33854;57.708;12.008;2023-04-22T09:13:12;100798.72;;;15.75;59.90
48077;BME280;33854;57.708;12.008;2023-04-22T09:15:38;100800.53;;;15.87;60.10
48077;BME280;33854;57.708;12.008;2023-04-22T09:18:03;100790.88;;;16.01;59.96
48077;BME280;33854;57.708;12.008;2023-04-22T09:20:30;100802.75;;;15.93;59.64
48077;BME280;33854;57.708;12.008;2023-04-22T09:22:56;100797.59;;;16.05;59.88
48077;BME280;33854;57.708;12.008;2023-04-22T09:25:26;100786.22;;;15.91;59.43
48077;BME280;33854;57.708;12.008;2023-04-22T09:27:56;100793.50;;;16.01;60.06
48077;BME280;33854;57.708;12.008;2023-04-22T09:30:32;100793.94;;;16.20;60.06
48077;BME280;33854;57.708;12.008;2023-04-22T09:32:59;100795.84;;;16.43;59.32
48077;BME280;33854;57.708;12.008;2023-04-22T09:37:56;100790.03;;;16.50;58.60
48077;BME280;33854;57.708;12.008;2023-04-22T09:40:22;100785.22;;;16.57;61.13
48077;BME280;33854;57.708;12.008;2023-04-22T09:42:53;100780.03;;;16.68;63.10
48077;BME280;33854;57.708;12.008;2023-04-22T09:45:32;100784.56;;;16.66;59.58
48077;BME280;33854;57.708;12.008;2023-04-22T09:50:34;100790.78;;;16.65;61.26
48077;BME280;33854;57.708;12.008;2023-04-22T09:53:05;100787.00;;;16.44;60.03
48077;BME280;33854;57.708;12.008;2023-04-22T09:55:36;100773.31;;;16.64;60.13
48077;BME280;33854;57.708;12.008;2023-04-22T09:58:09;100767.38;;;16.73;60.63
48077;BME280;33854;57.708;12.008;2023-04-22T10:00:53;100752.09;;;16.66;61.31
48077;BME280;33854;57.708;12.008;2023-04-22T10:03:19;100767.00;;;16.90;61.63
48077;BME280;33854;57.708;12.008;2023-04-22T10:05:44;100768.59;;;16.93;60.61
48077;BME280;33854;57.708;12.008;2023-04-22T10:08:11;100761.06;;;16.99;59.83
48077;BME280;33854;57.708;12.008;2023-04-22T10:10:37;100767.88;;;17.15;59.89
48077;BME280;33854;57.708;12.008;2023-04-22T10:13:04;100761.88;;;17.36;57.84
48077;BME280;33854;57.708;12.008;2023-04-22T10:15:30;100758.41;;;17.36;54.76
48077;BME280;33854;57.708;12.008;2023-04-22T10:17:56;100754.25;;;17.44;55.37
48077;BME280;33854;57.708;12.008;2023-04-22T10:20:25;100743.09;;;17.17;53.93
48077;BME280;33854;57.708;12.008;2023-04-22T10:22:52;100743.88;;;17.30;52.70
48077;BME280;33854;57.708;12.008;2023-04-22T10:25:25;100739.72;;;17.39;52.56
48077;BME280;33854;57.708;12.008;2023-04-22T10:27:52;100723.94;;;17.50;52.17
48077;BME280;33854;57.708;12.008;2023-04-22T10:30:29;100720.44;;;17.49;49.96
48077;BME280;33854;57.708;12.008;2023-04-22T10:32:54;100727.03;;;17.68;47.56
48077;BME280;33854;57.708;12.008;2023-04-22T10:35:26;100718.75;;;17.48;45.76
48077;BME280;33854;57.708;12.008;2023-04-22T10:37:54;100717.81;;;17.73;46.21
48077;BME280;33854;57.708;12.008;2023-04-22T10:40:20;100712.41;;;17.86;45.57
48077;BME280;33854;57.708;12.008;2023-04-22T10:42:50;100707.53;;;17.92;44.50
48077;BME280;33854;57.708;12.008;2023-04-22T10:45:16;100710.31;;;18.02;45.53
48077;BME280;33854;57.708;12.008;2023-04-22T10:47:42;100700.06;;;17.97;45.28
48077;BME280;33854;57.708;12.008;2023-04-22T10:50:24;100695.53;;;18.33;44.60
48077;BME280;33854;57.708;12.008;2023-04-22T10:52:58;100696.03;;;18.49;44.25
48077;BME280;33854;57.708;12.008;2023-04-22T10:55:25;100696.03;;;18.49;45.17
48077;BME280;33854;57.708;12.008;2023-04-22T10:57:51;100692.19;;;18.42;43.33
48077;BME280;33854;57.708;12.008;2023-04-22T11:03:13;100689.53;;;18.42;43.82
48077;BME280;33854;57.708;12.008;2023-04-22T11:05:37;100682.69;;;18.39;43.44
48077;BME280;33854;57.708;12.008;2023-04-22T11:08:06;100673.09;;;18.49;44.60
48077;BME280;33854;57.708;12.008;2023-04-22T11:13:06;100660.19;;;18.78;42.38
48077;BME280;33854;57.708;12.008;2023-04-22T11:15:34;100659.16;;;18.36;41.49
48077;BME280;33854;57.708;12.008;2023-04-22T11:17:59;100665.16;;;18.49;41.57
48077;BME280;33854;57.708;12.008;2023-04-22T11:20:25;100662.97;;;18.76;41.97
48077;BME280;33854;57.708;12.008;2023-04-22T11:22:53;100665.78;;;18.96;42.12
48077;BME280;33854;57.708;12.008;2023-04-22T11:25:19;100661.59;;;18.93;42.45
48077;BME280;33854;57.708;12.008;2023-04-22T11:27:46;100659.53;;;18.97;42.94
48077;BME280;33854;57.708;12.008;2023-04-22T11:30:13;100661.59;;;18.93;42.21
48077;BME280;33854;57.708;12.008;2023-04-22T11:32:53;100655.69;;;18.90;42.22
48077;BME280;33854;57.708;12.008;2023-04-22T11:35:30;100640.47;;;18.82;43.44
48077;BME280;33854;57.708;12.008;2023-04-22T11:38:01;100649.16;;;18.73;43.50
48077;BME280;33854;57.708;12.008;2023-04-22T11:40:41;100653.25;;;18.98;43.33
48077;BME280;33854;57.708;12.008;2023-04-22T11:43:08;100650.91;;;19.15;43.16
48077;BME280;33854;57.708;12.008;2023-04-22T11:45:36;100645.75;;;19.46;43.92
48077;BME280;33854;57.708;12.008;2023-04-22T11:48:04;100639.88;;;19.42;43.08
48077;BME280;33854;57.708;12.008;2023-04-22T11:50:35;100625.97;;;19.70;43.37
48077;BME280;33854;57.708;12.008;2023-04-22T11:53:03;100628.81;;;20.09;42.87
48077;BME280;33854;57.708;12.008;2023-04-22T11:55:31;100639.78;;;19.74;43.04
48077;BME280;33854;57.708;12.008;2023-04-22T11:58:14;100623.03;;;19.94;43.04
48077;BME280;33854;57.708;12.008;2023-04-22T12:00:48;100633.25;;;20.08;43.56
48077;BME280;33854;57.708;12.008;2023-04-22T12:03:23;100633.75;;;20.23;42.62
48077;BME280;33854;57.708;12.008;2023-04-22T12:08:20;100630.94;;;20.55;43.40
48077;BME280;33854;57.708;12.008;2023-04-22T12:10:54;100633.97;;;20.50;42.98
48077;BME280;33854;57.708;12.008;2023-04-22T12:13:25;100643.69;;;20.30;42.98
48077;BME280;33854;57.708;12.008;2023-04-22T12:16:23;100637.94;;;20.84;43.62
48077;BME280;33854;57.708;12.008;2023-04-22T12:18:50;100635.38;;;20.44;42.62
48077;BME280;33854;57.708;12.008;2023-04-22T12:21:20;100639.19;;;20.71;43.42
48077;BME280;33854;57.708;12.008;2023-04-22T12:23:46;100625.13;;;21.28;42.92
48077;BME280;33854;57.708;12.008;2023-04-22T12:26:13;100629.81;;;21.63;42.98
48077;BME280;33854;57.708;12.008;2023-04-22T12:28:40;100631.06;;;21.68;42.92
48077;BME280;33854;57.708;12.008;2023-04-22T12:31:06;100619.94;;;21.45;42.10
48077;BME280;33854;57.708;12.008;2023-04-22T12:33:32;100618.94;;;21.56;41.81
48077;BME280;33854;57.708;12.008;2023-04-22T12:35:58;100612.78;;;22.02;42.07
48077;BME280;33854;57.708;12.008;2023-04-22T12:38:23;100596.16;;;22.00;41.91
48077;BME280;33854;57.708;12.008;2023-04-22T12:40:49;100603.94;;;21.65;42.28
48077;BME280;33854;57.708;12.008;2023-04-22T12:43:16;100612.81;;;21.36;42.58
48077;BME280;33854;57.708;12.008;2023-04-22T12:45:41;100602.88;;;21.57;42.65
48077;BME280;33854;57.708;12.008;2023-04-22T12:48:07;100598.50;;;21.66;42.54